Lingle, WY (82223)

2:42 AM MDT on April 19, 2015 (GMT -0600)
Torrington Main St Mkt | | Change Station
CLOSE
Current Station
Personal Weather Station
Location: Torrington, WY
Elevation: 4094 ft
Nearby Weather Stations

Elev 4094 ft 42.06 °N, 104.18 °W | Updated 10 minutes ago

Mostly Cloudy
Mostly Cloudy
41.2 °F
Feels Like 34 °F
N
14.0
Wind Variable Wind from SW
Gusts 20.0 mph

Today
High -- | Low -- °F
--% Chance of Precip.
Yesterday
High -- | Low -- °F
Precip. -- in
6:10 AM 7:42 PM
New Moon, 0% visible
Pressure 30.01 in
Visibility 10.0 miles
Clouds Few 9500 ft
Mostly Cloudy 11000 ft
Windchill 34 °F
Dew Point 32 °F
Humidity 70%
Rainfall 0.00 in
Snow Depth Not available.
UV 0 out of 12
Pollen 4.60 out of 12
Air Quality Not available.
Flu Activity Local Activity
METAR KTOR 190753Z AUTO 34018G33KT 10SM FEW095 BKN110 06/M01 A3003 RMK AO2 PK WND 33035/0706 SLP160 T00611006

More Conditions Fewer Conditions

Pressure 30.01 in
Visibility 10.0 miles
Clouds Few 9500 ft
Mostly Cloudy 11000 ft
Windchill 34 °F
Dew Point 32 °F
Humidity 70%
Rainfall 0.00 in
Snow Depth Not available.
UV 0 out of 12
Pollen 4.60 out of 12
Air Quality Not available.
Flu Activity Local Activity
METAR KTOR 190753Z AUTO 34018G33KT 10SM FEW095 BKN110 06/M01 A3003 RMK AO2 PK WND 33035/0706 SLP160 T00611006

More Conditions Fewer Conditions

10-Day Weather Forecast

Almanac

Astronomy

Apr. 19, 2015 Rise Set
Actual Time
Civil Twilight
Nautical Twilight
Astronomical Twilight
Moon
Length of Visible Light
Length of Day
Tomorrow will be .
, % of the Moon is Illuminated

Today's Extremes

State Highs State Lows

Community

WunderPhotos

Upload Photos

1,814,723 photos uploaded!

WunderBlogs® & News

Nearby

Air Quality

  Air Quality AQ Index Pollutant
Not available.

Snow Depth

Station Depth Elevation

Earthquake Activity

City Distance Mag. Time & Date
Minimum magnitude displayed is 2.5.

Coastal Water Temperatures

Place Temperature

Stations

Nearby Weather Stations

Station Location Temp. Windchill Dew Point Humidity Wind Precip. Elev Updated Type